Time,TemperatureF,DewpointF,PressureIn,WindDirection,WindDirectionDegrees,WindSpeedMPH,WindSpeedGustMPH,Humidity,HourlyPrecipIn,Conditions,Clouds,dailyrainin,SoftwareType,DateUTC
2013-06-08 00:00:00,67.8,33.5,29.53,SSW,209,0.0,0.0,28,0.00,,SKC,0.00,VWS V12.07,2013-06-08 06:00:00,
2013-06-08 00:30:00,66.6,33.4,29.53,West,259,0.0,0.0,29,0.00,,SKC,0.00,VWS V12.07,2013-06-08 06:30:00,
2013-06-08 01:00:00,66.8,32.7,29.53,West,259,0.0,0.0,28,0.00,,SKC,0.00,VWS V12.07,2013-06-08 07:00:00,
2013-06-08 01:30:00,65.3,33.9,29.53,West,259,0.0,0.0,31,0.00,,SKC,0.00,VWS V12.07,2013-06-08 07:30:00,
2013-06-08 02:00:00,65.6,34.2,29.54,WSW,256,0.0,0.0,31,0.00,,SKC,0.00,VWS V12.07,2013-06-08 08:00:00,
2013-06-08 02:30:00,64.7,33.4,29.54,WSW,256,0.0,0.0,31,0.00,,SKC,0.00,VWS V12.07,2013-06-08 08:30:00,
2013-06-08 03:00:00,65.8,35.9,29.55,WSW,254,0.0,0.0,33,0.00,,SKC,0.00,VWS V12.07,2013-06-08 09:00:00,
2013-06-08 03:30:00,65.0,36.0,29.54,WSW,254,0.0,0.0,34,0.00,,SKC,0.00,VWS V12.07,2013-06-08 09:30:00,
2013-06-08 04:00:00,65.6,37.2,29.55,WSW,250,0.0,1.0,35,0.00,,SKC,0.00,VWS V12.07,2013-06-08 10:00:00,
2013-06-08 04:30:00,66.3,37.8,29.55,WSW,250,0.0,0.0,35,0.00,,SKC,0.00,VWS V12.07,2013-06-08 10:30:00,
2013-06-08 05:01:00,65.6,40.0,29.56,WSW,250,0.0,0.0,39,0.00,,SKC,0.00,VWS V12.07,2013-06-08 11:01:00,
2013-06-08 05:30:00,61.8,40.8,29.58,WSW,250,0.0,0.0,46,0.00,,SKC,0.00,VWS V12.07,2013-06-08 11:30:00,
2013-06-08 06:00:00,60.9,41.1,29.59,WSW,250,0.0,0.0,48,0.00,,SKC,0.00,VWS V12.07,2013-06-08 12:00:00,
2013-06-08 06:30:00,61.3,42.0,29.59,WSW,250,0.0,0.0,49,0.00,,SKC,0.00,VWS V12.07,2013-06-08 12:30:00,
2013-06-08 07:30:00,59.2,42.6,29.63,SW,217,0.0,0.0,54,0.00,,SKC,0.00,VWS V12.07,2013-06-08 13:30:00,
2013-06-08 08:01:00,65.8,45.6,29.62,WSW,254,0.0,0.0,48,0.00,,SKC,0.00,VWS V12.07,2013-06-08 14:01:00,
2013-06-08 08:30:00,68.6,39.9,29.62,SSE,166,0.0,1.0,35,0.00,,SKC,0.00,VWS V12.07,2013-06-08 14:30:00,
2013-06-08 09:00:00,69.9,42.5,29.63,ENE,67,4.0,4.0,37,0.00,,SKC,0.00,VWS V12.07,2013-06-08 15:00:00,
2013-06-08 09:30:00,71.3,41.5,29.65,ENE,67,0.0,1.0,34,0.00,,SKC,0.00,VWS V12.07,2013-06-08 15:30:00,
2013-06-08 10:00:00,70.9,40.4,29.67,East,98,1.0,9.0,33,0.00,,SKC,0.00,VWS V12.07,2013-06-08 16:00:00,
2013-06-08 10:30:00,72.3,41.6,29.66,ENE,67,0.0,1.0,33,0.00,,SKC,0.00,VWS V12.07,2013-06-08 16:30:00,
2013-06-08 11:01:00,71.6,41.0,29.67,East,89,0.0,6.0,33,0.00,,SKC,0.00,VWS V12.07,2013-06-08 17:01:00,
2013-06-08 11:30:00,73.0,37.1,29.67,NNE,29,0.0,3.0,27,0.00,,SKC,0.00,VWS V12.07,2013-06-08 17:30:00,
2013-06-08 12:00:00,74.4,34.2,29.68,West,275,0.0,4.0,23,0.00,,SKC,0.00,VWS V12.07,2013-06-08 18:00:00,
2013-06-08 12:30:00,74.9,32.4,29.68,ESE,119,0.0,1.0,21,0.00,,SKC,0.00,VWS V12.07,2013-06-08 18:30:00,
2013-06-08 13:01:00,77.0,35.3,29.65,SE,134,0.0,5.0,22,0.00,,SKC,0.00,VWS V12.07,2013-06-08 19:01:00,
2013-06-08 13:30:00,77.4,33.2,29.66,NE,55,0.0,4.0,20,0.00,,SKC,0.00,VWS V12.07,2013-06-08 19:30:00,
2013-06-08 14:00:00,77.7,40.1,29.66,NE,56,0.0,6.0,26,0.00,,SKC,0.00,VWS V12.07,2013-06-08 20:00:00,
2013-06-08 14:30:00,78.1,40.5,29.66,NE,37,1.0,6.0,26,0.00,,SKC,0.00,VWS V12.07,2013-06-08 20:30:00,
2013-06-08 15:01:00,78.6,40.9,29.65,NE,34,0.0,6.0,26,0.00,,SKC,0.00,VWS V12.07,2013-06-08 21:01:00,
2013-06-08 15:30:00,79.0,43.2,29.65,SE,138,0.0,4.0,28,0.00,,SKC,0.00,VWS V12.07,2013-06-08 21:30:00,
2013-06-08 16:00:00,77.9,39.3,29.66,ENE,67,0.0,9.0,25,0.00,,SKC,0.00,VWS V12.07,2013-06-08 22:00:00,
2013-06-08 16:30:00,78.5,36.5,29.65,ENE,78,0.0,5.0,22,0.00,,SKC,0.00,VWS V12.07,2013-06-08 22:30:00,
2013-06-08 17:00:00,78.5,30.1,29.67,SE,126,0.0,7.0,17,0.00,,SKC,0.00,VWS V12.07,2013-06-08 23:00:00,
2013-06-08 17:30:00,79.0,31.9,29.67,East,82,0.0,4.0,18,0.00,,SKC,0.00,VWS V12.07,2013-06-08 23:30:00,
2013-06-08 18:00:00,79.0,35.8,29.68,ESE,111,0.0,4.0,21,0.00,,SKC,0.00,VWS V12.07,2013-06-09 00:00:00,
2013-06-08 18:30:00,77.9,26.6,29.69,ENE,57,1.0,1.0,15,0.00,,SKC,0.00,VWS V12.07,2013-06-09 00:30:00,
2013-06-08 19:01:00,77.9,28.1,29.69,NE,51,0.0,3.0,16,0.00,,SKC,0.00,VWS V12.07,2013-06-09 01:01:00,
2013-06-08 19:30:00,77.0,31.6,29.69,NE,51,0.0,0.0,19,0.00,,SKC,0.00,VWS V12.07,2013-06-09 01:30:00,
2013-06-08 20:00:00,74.6,40.3,29.67,NE,51,0.0,0.0,29,0.00,,SKC,0.00,VWS V12.07,2013-06-09 02:00:00,
2013-06-08 20:30:00,69.6,40.0,29.68,NE,51,0.0,0.0,34,0.00,,SKC,0.00,VWS V12.07,2013-06-09 02:30:00,
2013-06-08 21:00:00,67.3,30.3,29.71,NNE,28,0.0,0.0,25,0.00,,SKC,0.00,VWS V12.07,2013-06-09 03:00:00,
2013-06-08 21:30:00,67.6,26.3,29.71,WSW,247,0.0,0.0,21,0.00,,SKC,0.00,VWS V12.07,2013-06-09 03:30:00,
2013-06-08 22:00:00,67.8,24.1,29.71,SW,221,0.0,0.0,19,0.00,,SKC,0.00,VWS V12.07,2013-06-09 04:00:00,
2013-06-08 22:30:00,67.9,24.1,29.71,SW,221,0.0,0.0,19,0.00,,SKC,0.00,VWS V12.07,2013-06-09 04:30:00,
2013-06-08 23:01:00,67.4,23.7,29.72,SSW,199,0.0,0.0,19,0.00,,SKC,0.00,VWS V12.07,2013-06-09 05:01:00,
2013-06-08 23:30:00,66.9,24.5,29.72,SSW,199,0.0,0.0,20,0.00,,SKC,0.00,VWS V12.07,2013-06-09 05:30:00,